createdAt,value
2022-12-15T00:03:12.428Z,45.85
2022-12-15T00:08:34.171Z,45.03
2022-12-15T00:13:55.813Z,45.47
2022-12-15T00:19:17.421Z,45.43
2022-12-15T00:24:39.402Z,46.13
2022-12-15T00:30:00.738Z,45.72
2022-12-15T00:35:23.713Z,45.10
2022-12-15T00:40:26.614Z,45.13
2022-12-15T00:45:48.916Z,45.16
2022-12-15T00:50:54.464Z,44.95
2022-12-15T00:56:16.185Z,44.79
2022-12-15T01:01:37.812Z,44.78
2022-12-15T01:06:59.680Z,44.90
2022-12-15T01:12:21.523Z,44.90
2022-12-15T01:17:42.756Z,44.42
2022-12-15T01:22:47.090Z,43.11
2022-12-15T01:27:50.813Z,42.91
2022-12-15T01:32:54.129Z,43.04
2022-12-15T01:37:57.133Z,43.07
2022-12-15T01:43:00.145Z,42.94
2022-12-15T01:48:07.448Z,43.11
2022-12-15T01:53:12.294Z,43.26
2022-12-15T01:58:17.693Z,43.25
2022-12-15T02:03:20.877Z,43.46
2022-12-15T02:08:23.977Z,43.86
2022-12-15T02:13:46.437Z,44.11
2022-12-15T02:19:15.348Z,44.64
2022-12-15T02:24:34.743Z,45.09
2022-12-15T02:29:53.006Z,45.80
2022-12-15T02:34:58.570Z,45.97
2022-12-15T02:40:02.092Z,46.69
2022-12-15T02:45:10.933Z,46.51
2022-12-15T02:50:31.651Z,45.82
2022-12-15T02:55:39.572Z,45.16
2022-12-15T03:00:50.919Z,45.43
2022-12-15T03:05:55.314Z,46.11
2022-12-15T03:10:59.283Z,46.14
2022-12-15T03:16:02.209Z,45.59
2022-12-15T03:21:05.764Z,44.99
2022-12-15T03:26:08.767Z,45.85
2022-12-15T03:31:11.672Z,45.29
2022-12-15T03:36:14.576Z,44.89
2022-12-15T03:41:20.346Z,44.62
2022-12-15T03:46:23.324Z,44.19
2022-12-15T03:51:26.355Z,43.79
2022-12-15T03:56:29.364Z,44.17
2022-12-15T04:01:34.823Z,44.11
2022-12-15T04:06:37.934Z,44.28
2022-12-15T04:11:40.840Z,43.54
2022-12-15T04:16:43.858Z,43.92
2022-12-15T04:21:46.857Z,44.71
2022-12-15T04:27:08.287Z,45.11
2022-12-15T04:32:29.828Z,44.74
2022-12-15T04:37:51.469Z,44.35
2022-12-15T04:43:12.908Z,44.27
2022-12-15T04:48:34.963Z,43.90
2022-12-15T04:53:56.397Z,44.26
2022-12-15T04:59:18.557Z,44.63
2022-12-15T05:04:39.969Z,44.76
2022-12-15T05:10:03.396Z,44.50
2022-12-15T05:15:26.485Z,44.03
2022-12-15T05:20:50.002Z,43.26
2022-12-15T05:26:11.685Z,42.56
2022-12-15T05:31:33.581Z,42.14
2022-12-15T05:36:36.638Z,42.72
2022-12-15T05:41:39.543Z,42.81
2022-12-15T05:46:42.569Z,42.75
2022-12-15T05:51:48.024Z,42.71
2022-12-15T05:56:50.916Z,43.21
2022-12-15T06:01:54.096Z,43.40
2022-12-15T06:06:57.029Z,43.51
2022-12-15T06:12:00.751Z,43.24
2022-12-15T06:17:04.071Z,43.78
2022-12-15T06:22:06.971Z,43.51
2022-12-15T06:27:09.974Z,44.07
2022-12-15T06:32:12.876Z,43.51
2022-12-15T06:37:15.706Z,43.49
2022-12-15T06:42:18.581Z,43.81
2022-12-15T06:47:21.484Z,43.41
2022-12-15T06:52:24.388Z,43.25
2022-12-15T06:57:27.293Z,42.97
2022-12-15T07:02:33.174Z,43.63
2022-12-15T07:07:36.306Z,44.53
2022-12-15T07:12:39.481Z,44.51
2022-12-15T07:17:42.496Z,43.77
2022-12-15T07:22:51.128Z,43.36
2022-12-15T07:27:54.337Z,43.13
2022-12-15T07:32:57.246Z,43.51
2022-12-15T07:38:00.465Z,43.94
2022-12-15T07:43:03.461Z,44.07
2022-12-15T07:48:06.776Z,43.68
2022-12-15T07:53:09.677Z,44.00
2022-12-15T07:58:12.505Z,44.21
2022-12-15T08:03:15.583Z,44.01
2022-12-15T08:08:18.806Z,44.13
2022-12-15T08:13:38.423Z,44.85
2022-12-15T08:18:45.195Z,43.82
2022-12-15T08:23:48.300Z,43.79
2022-12-15T08:28:51.202Z,44.32
2022-12-15T08:33:55.338Z,44.35
2022-12-15T08:39:00.395Z,45.35
2022-12-15T08:44:03.883Z,45.86
2022-12-15T08:49:06.920Z,45.36
2022-12-15T08:54:09.831Z,45.25
2022-12-15T08:59:12.763Z,45.20
2022-12-15T09:04:15.848Z,45.31
2022-12-15T09:09:19.747Z,45.70
2022-12-15T09:14:28.831Z,44.11
2022-12-15T09:19:32.751Z,43.80
2022-12-15T09:24:35.855Z,43.13
2022-12-15T09:29:38.752Z,41.06
2022-12-15T09:34:42.069Z,43.38
2022-12-15T09:39:45.073Z,48.38
2022-12-15T09:44:50.340Z,53.81
2022-12-15T09:49:57.235Z,59.34
2022-12-15T09:55:01.976Z,63.85
2022-12-15T10:00:11.621Z,52.49
2022-12-15T10:05:20.714Z,54.25
2022-12-15T10:10:45.915Z,58.95
2022-12-15T10:15:59.205Z,63.97
2022-12-15T10:21:03.637Z,62.77
2022-12-15T10:26:16.109Z,53.11
2022-12-15T10:31:30.875Z,59.08
2022-12-15T10:36:33.819Z,63.57
2022-12-15T10:41:36.721Z,54.76
2022-12-15T10:46:39.974Z,58.00
2022-12-15T10:51:47.041Z,63.86
2022-12-15T10:57:03.359Z,56.52
2022-12-15T11:02:25.659Z,56.62
2022-12-15T11:07:41.433Z,63.89
2022-12-15T11:12:58.118Z,56.97
2022-12-15T11:18:07.514Z,58.34
2022-12-15T11:23:34.664Z,64.06
2022-12-15T11:28:51.142Z,60.09
2022-12-15T11:33:54.884Z,56.22
2022-12-15T11:39:14.340Z,61.47
2022-12-15T11:44:35.957Z,63.20
2022-12-15T11:50:09.894Z,56.47
2022-12-15T11:55:51.914Z,56.81
2022-12-15T12:01:22.944Z,62.89
2022-12-15T12:06:41.034Z,64.94
2022-12-15T12:11:52.339Z,56.62
2022-12-15T12:17:13.876Z,57.29
2022-12-15T12:22:26.783Z,65.41
2022-12-15T12:27:39.658Z,56.79
2022-12-15T12:32:47.614Z,57.47
2022-12-15T12:38:03.376Z,63.68
2022-12-15T12:43:14.151Z,59.87
2022-12-15T12:48:51.177Z,53.83
2022-12-15T12:53:55.209Z,63.90
2022-12-15T12:58:58.417Z,60.37
2022-12-15T13:04:13.510Z,53.54
2022-12-15T13:09:19.483Z,62.03
2022-12-15T13:14:40.623Z,62.80
2022-12-15T13:19:59.069Z,54.16
2022-12-15T13:25:23.837Z,61.18
2022-12-15T13:30:27.494Z,63.95
2022-12-15T13:35:32.351Z,56.22
2022-12-15T13:40:35.591Z,54.47
2022-12-15T13:45:50.607Z,59.12
2022-12-15T13:51:32.495Z,66.89
2022-12-15T13:56:52.375Z,57.04
2022-12-15T14:01:55.624Z,57.20
2022-12-15T14:07:02.140Z,64.93
2022-12-15T14:12:12.087Z,62.99
2022-12-15T14:17:16.653Z,53.84
2022-12-15T14:22:29.972Z,61.02
2022-12-15T14:27:34.038Z,62.59
2022-12-15T14:32:38.234Z,56.14
2022-12-15T14:37:41.809Z,59.54
2022-12-15T14:42:46.590Z,66.52
2022-12-15T14:53:21.944Z,53.24
2022-12-15T14:58:34.738Z,59.71
2022-12-15T15:03:06.090Z,61.20
2022-12-15T15:03:40.992Z,66.59
2022-12-15T15:08:50.262Z,60.38
2022-12-15T15:13:56.970Z,56.88
2022-12-15T15:19:01.868Z,63.76
2022-12-15T15:24:21.308Z,64.11
2022-12-15T15:29:37.112Z,54.77
2022-12-15T15:34:40.018Z,60.07
2022-12-15T15:39:43.251Z,65.81
2022-12-15T15:44:46.408Z,59.16
2022-12-15T15:49:50.776Z,55.28
2022-12-15T15:54:54.047Z,60.22
2022-12-15T15:59:57.501Z,65.73
2022-12-15T16:05:02.968Z,62.68
2022-12-15T16:10:13.631Z,53.98
2022-12-15T16:15:23.236Z,58.12
2022-12-15T16:20:29.896Z,61.29
2022-12-15T16:25:50.957Z,67.61
2022-12-15T16:30:54.908Z,58.64
2022-12-15T16:35:58.350Z,57.68
2022-12-15T16:41:06.786Z,65.53
2022-12-15T16:46:14.860Z,60.80
2022-12-15T16:51:45.599Z,57.43
2022-12-15T16:56:49.022Z,60.54
2022-12-15T17:01:52.140Z,68.36
2022-12-15T17:06:55.537Z,61.24
2022-12-15T17:12:00.182Z,55.50
2022-12-15T17:17:03.085Z,60.02
2022-12-15T17:22:06.010Z,67.06
2022-12-15T17:27:22.314Z,59.26
2022-12-15T17:32:25.188Z,58.14
2022-12-15T17:37:33.431Z,66.07
2022-12-15T17:42:38.197Z,61.76
2022-12-15T17:47:41.102Z,58.08
2022-12-15T17:52:47.171Z,64.28
2022-12-15T17:57:51.590Z,58.48
2022-12-15T18:02:57.018Z,60.26
2022-12-15T18:08:07.356Z,65.04
2022-12-15T18:13:21.504Z,59.31
2022-12-15T18:18:25.599Z,64.16
2022-12-15T18:23:31.402Z,60.33
2022-12-15T18:28:36.889Z,57.55
2022-12-15T18:33:40.100Z,65.25
2022-12-15T18:38:43.273Z,60.38
2022-12-15T18:43:47.962Z,57.17
2022-12-15T18:48:50.786Z,64.28
2022-12-15T18:53:53.768Z,57.23
2022-12-15T18:58:56.679Z,57.33
2022-12-15T19:03:59.576Z,64.22
2022-12-15T19:09:05.636Z,58.46
2022-12-15T19:14:33.647Z,60.59
2022-12-15T19:19:55.399Z,63.73
2022-12-15T19:24:59.217Z,56.07
2022-12-15T19:30:02.240Z,63.03
2022-12-15T19:35:06.399Z,61.75
2022-12-15T19:40:19.703Z,57.99
2022-12-15T19:45:25.685Z,64.54
2022-12-15T19:50:33.706Z,57.11
2022-12-15T19:55:36.648Z,57.51
2022-12-15T20:00:39.766Z,61.26
2022-12-15T20:05:43.132Z,66.62
2022-12-15T20:10:46.958Z,60.24
2022-12-15T20:15:49.872Z,56.82
2022-12-15T20:20:52.974Z,62.61
2022-12-15T20:25:56.681Z,63.36
2022-12-15T20:30:59.613Z,56.96
2022-12-15T20:36:03.219Z,60.42
2022-12-15T20:41:06.126Z,63.36
2022-12-15T20:46:25.481Z,56.50
2022-12-15T20:51:30.856Z,63.85
2022-12-15T20:56:33.882Z,60.58
2022-12-15T21:01:39.319Z,55.29
2022-12-15T21:06:44.259Z,63.51
2022-12-15T21:11:48.406Z,61.59
2022-12-15T21:16:51.402Z,54.25
2022-12-15T21:21:55.258Z,59.79
2022-12-15T21:26:58.688Z,66.56
2022-12-15T21:32:01.589Z,56.68
2022-12-15T21:37:05.520Z,53.78
2022-12-15T21:42:16.244Z,59.34
2022-12-15T21:47:48.289Z,66.17
2022-12-15T21:52:51.534Z,57.19
2022-12-15T21:57:55.631Z,59.02
2022-12-15T22:02:58.678Z,64.48
2022-12-15T22:08:19.767Z,60.86
2022-12-15T22:13:23.711Z,55.05
2022-12-15T22:18:26.601Z,62.70
2022-12-15T22:23:29.504Z,65.38
2022-12-15T22:28:33.307Z,56.88
2022-12-15T22:33:36.545Z,61.64
2022-12-15T22:38:39.753Z,64.25
2022-12-15T22:43:45.014Z,56.72
2022-12-15T22:48:48.780Z,61.18
2022-12-15T22:53:51.854Z,61.36
2022-12-15T22:59:01.611Z,55.61
2022-12-15T23:04:06.043Z,60.22
2022-12-15T23:09:09.060Z,65.56
2022-12-15T23:14:14.931Z,58.50
2022-12-15T23:19:26.646Z,60.31
2022-12-15T23:24:31.490Z,62.80
2022-12-15T23:29:35.012Z,56.32
2022-12-15T23:34:37.911Z,61.46
2022-12-15T23:39:40.818Z,66.24
2022-12-15T23:44:43.773Z,57.91
2022-12-15T23:49:46.732Z,56.77
2022-12-15T23:54:49.837Z,61.18
2022-12-15T23:59:53.362Z,65.62
